createdAt,value
2018-12-22T00:02:09.800Z,89.70
2018-12-22T00:04:38.366Z,90.10
2018-12-22T00:07:07.029Z,89.75
2018-12-22T00:09:35.621Z,89.59
2018-12-22T00:12:04.311Z,89.89
2018-12-22T00:14:32.965Z,89.57
2018-12-22T00:17:01.563Z,89.46
2018-12-22T00:19:30.156Z,89.67
2018-12-22T00:21:58.721Z,90.52
2018-12-22T00:24:27.326Z,90.24
2018-12-22T00:26:55.926Z,90.72
2018-12-22T00:29:24.562Z,90.45
2018-12-22T00:31:53.167Z,89.64
2018-12-22T00:34:21.740Z,89.28
2018-12-22T00:36:50.343Z,89.10
2018-12-22T00:39:18.952Z,89.27
2018-12-22T00:41:47.566Z,89.27
2018-12-22T00:44:16.231Z,89.07
2018-12-22T00:46:44.845Z,88.81
2018-12-22T00:49:13.409Z,88.55
2018-12-22T00:51:41.989Z,87.38
2018-12-22T00:54:41.668Z,86.81
2018-12-22T00:57:10.341Z,87.15
2018-12-22T00:59:38.939Z,87.56
2018-12-22T01:02:07.550Z,87.06
2018-12-22T01:04:36.124Z,86.61
2018-12-22T01:07:04.697Z,86.53
2018-12-22T01:09:33.320Z,86.87
2018-12-22T01:12:01.920Z,86.49
2018-12-22T01:14:30.510Z,87.26
2018-12-22T01:17:03.241Z,87.25
2018-12-22T01:19:31.822Z,87.53
2018-12-22T01:22:00.463Z,87.46
2018-12-22T01:24:29.104Z,87.38
2018-12-22T01:26:57.707Z,87.23
2018-12-22T01:29:26.290Z,87.09
2018-12-22T01:31:54.839Z,86.71
2018-12-22T01:34:23.464Z,87.43
2018-12-22T01:36:52.083Z,87.98
2018-12-22T01:39:20.643Z,88.03
2018-12-22T01:41:49.262Z,88.36
2018-12-22T01:44:17.855Z,88.00
2018-12-22T01:46:46.434Z,88.53
2018-12-22T01:49:15.068Z,89.13
2018-12-22T01:51:43.766Z,89.03
2018-12-22T01:54:12.418Z,88.66
2018-12-22T01:56:41.011Z,88.54
2018-12-22T01:59:09.625Z,88.45
2018-12-22T02:01:38.227Z,88.68
2018-12-22T02:04:06.800Z,88.88
2018-12-22T02:06:36.529Z,88.95
2018-12-22T02:09:07.206Z,89.13
2018-12-22T02:11:35.820Z,89.20
2018-12-22T02:14:04.667Z,88.81
2018-12-22T02:16:33.345Z,88.92
2018-12-22T02:19:01.914Z,88.08
2018-12-22T02:21:30.528Z,88.28
2018-12-22T02:23:59.105Z,87.60
2018-12-22T02:26:27.699Z,88.16
2018-12-22T02:28:56.862Z,87.92
2018-12-22T02:31:25.671Z,88.96
2018-12-22T02:33:54.224Z,89.77
2018-12-22T02:36:22.863Z,89.45
2018-12-22T02:38:51.416Z,89.04
2018-12-22T02:41:20.082Z,89.35
2018-12-22T02:43:48.639Z,89.94
2018-12-22T02:46:17.202Z,89.49
2018-12-22T02:48:45.791Z,89.33
2018-12-22T02:51:14.357Z,88.82
2018-12-22T02:53:42.920Z,88.51
2018-12-22T02:56:11.489Z,88.26
2018-12-22T02:58:40.086Z,87.96
2018-12-22T03:01:08.676Z,87.67
2018-12-22T03:03:37.424Z,88.45
2018-12-22T03:06:05.972Z,89.16
2018-12-22T03:08:34.528Z,89.73
2018-12-22T03:11:03.144Z,90.06
2018-12-22T03:13:31.748Z,89.34
2018-12-22T03:16:00.410Z,88.89
2018-12-22T03:18:29.001Z,88.12
2018-12-22T03:20:57.570Z,86.25
2018-12-22T03:23:26.206Z,85.82
2018-12-22T03:25:54.734Z,86.19
2018-12-22T03:28:23.374Z,86.45
2018-12-22T03:30:51.961Z,86.85
2018-12-22T03:33:20.613Z,87.47
2018-12-22T03:35:49.905Z,87.10
2018-12-22T03:38:18.520Z,87.70
2018-12-22T03:40:47.122Z,87.97
2018-12-22T03:43:15.700Z,87.38
2018-12-22T03:45:44.255Z,86.95
2018-12-22T03:48:12.918Z,87.35
2018-12-22T03:50:41.525Z,87.13
2018-12-22T03:53:10.107Z,86.97
2018-12-22T03:55:38.680Z,87.30
2018-12-22T03:58:07.270Z,87.82
2018-12-22T04:00:35.852Z,87.41
2018-12-22T04:03:04.397Z,87.26
2018-12-22T04:05:33.015Z,86.96
2018-12-22T04:08:01.607Z,86.71
2018-12-22T04:10:30.242Z,86.49
2018-12-22T04:12:58.767Z,86.46
2018-12-22T04:15:27.428Z,86.86
2018-12-22T04:17:56.020Z,86.04
2018-12-22T04:20:24.618Z,86.49
2018-12-22T04:22:53.159Z,87.29
2018-12-22T04:25:21.775Z,87.04
2018-12-22T04:27:50.547Z,87.76
2018-12-22T04:30:19.233Z,87.75
2018-12-22T04:32:47.840Z,87.24
2018-12-22T04:35:16.429Z,86.36
2018-12-22T04:37:44.973Z,86.15
2018-12-22T04:40:13.545Z,85.85
2018-12-22T04:42:42.068Z,85.91
2018-12-22T04:45:10.647Z,85.53
2018-12-22T04:47:40.107Z,85.23
2018-12-22T04:50:08.805Z,84.77
2018-12-22T04:52:37.404Z,85.06
2018-12-22T04:55:06.308Z,84.76
2018-12-22T04:57:34.996Z,84.99
2018-12-22T05:00:09.810Z,84.89
2018-12-22T05:02:38.411Z,84.95
2018-12-22T05:05:07.183Z,85.39
2018-12-22T05:07:35.776Z,85.27
2018-12-22T05:10:04.764Z,84.74
2018-12-22T05:12:33.401Z,84.71
2018-12-22T05:15:01.990Z,84.91
2018-12-22T05:17:30.544Z,85.76
2018-12-22T05:19:59.097Z,86.53
2018-12-22T05:22:27.912Z,86.83
2018-12-22T05:24:56.455Z,87.30
2018-12-22T05:27:25.003Z,87.13
2018-12-22T05:29:53.571Z,86.66
2018-12-22T05:32:22.237Z,86.14
2018-12-22T05:34:50.862Z,86.51
2018-12-22T05:37:19.481Z,86.55
2018-12-22T05:39:48.091Z,86.79
2018-12-22T05:42:16.711Z,85.61
2018-12-22T05:44:45.280Z,86.98
2018-12-22T05:47:13.868Z,87.55
2018-12-22T05:49:42.520Z,87.85
2018-12-22T05:52:11.112Z,87.46
2018-12-22T05:54:39.728Z,87.23
2018-12-22T05:57:08.263Z,87.35
2018-12-22T05:59:36.826Z,87.73
2018-12-22T06:02:05.426Z,87.58
2018-12-22T06:04:34.050Z,85.83
2018-12-22T06:07:03.105Z,86.24
2018-12-22T06:09:31.672Z,85.80
2018-12-22T06:12:00.302Z,85.53
2018-12-22T06:14:28.865Z,85.43
2018-12-22T06:16:57.442Z,85.02
2018-12-22T06:19:26.052Z,84.00
2018-12-22T06:21:54.655Z,83.88
2018-12-22T06:24:23.179Z,83.45
2018-12-22T06:26:51.742Z,83.32
2018-12-22T06:29:21.378Z,83.58
2018-12-22T06:31:49.991Z,84.74
2018-12-22T06:34:18.618Z,85.29
2018-12-22T06:36:47.545Z,85.19
2018-12-22T06:39:16.055Z,85.28
2018-12-22T06:41:44.658Z,84.67
2018-12-22T06:44:13.768Z,84.34
2018-12-22T06:46:43.259Z,84.17
2018-12-22T06:49:13.405Z,84.54
2018-12-22T06:51:42.124Z,84.38
2018-12-22T06:54:10.745Z,86.30
2018-12-22T06:56:39.473Z,87.04
2018-12-22T06:59:08.115Z,86.95
2018-12-22T07:01:36.665Z,86.21
2018-12-22T07:04:05.247Z,86.24
2018-12-22T07:06:33.832Z,85.33
2018-12-22T07:09:02.431Z,85.95
2018-12-22T07:11:30.988Z,87.06
2018-12-22T07:13:59.653Z,86.76
2018-12-22T07:16:28.241Z,86.10
2018-12-22T07:18:56.805Z,86.46
2018-12-22T07:21:25.579Z,86.26
2018-12-22T07:23:54.136Z,85.71
2018-12-22T07:26:22.707Z,84.62
2018-12-22T07:28:52.784Z,83.98
2018-12-22T07:31:21.438Z,84.68
2018-12-22T07:33:50.409Z,84.50
2018-12-22T07:36:19.413Z,84.29
2018-12-22T07:38:48.277Z,84.37
2018-12-22T07:41:18.737Z,84.59
2018-12-22T07:43:47.529Z,83.72
2018-12-22T07:46:18.121Z,83.06
2018-12-22T07:48:47.057Z,83.24
2018-12-22T07:51:15.862Z,82.77
2018-12-22T07:53:44.674Z,82.17
2018-12-22T07:56:13.772Z,81.92
2018-12-22T07:58:43.662Z,81.12
2018-12-22T08:01:13.300Z,81.35
2018-12-22T08:03:42.235Z,81.85
2018-12-22T08:06:12.058Z,82.42
2018-12-22T08:08:41.214Z,81.65
2018-12-22T08:11:09.879Z,81.59
2018-12-22T08:13:41.141Z,81.54
2018-12-22T08:16:09.847Z,81.71
2018-12-22T08:18:39.067Z,81.60
2018-12-22T08:21:07.779Z,80.38
2018-12-22T08:23:36.552Z,80.58
2018-12-22T08:26:05.935Z,80.96
2018-12-22T08:28:35.407Z,80.60
2018-12-22T08:31:04.427Z,80.31
2018-12-22T08:33:33.149Z,80.35
2018-12-22T08:36:02.209Z,80.80
2018-12-22T08:38:31.349Z,81.04
2018-12-22T08:41:00.202Z,80.55
2018-12-22T08:43:29.790Z,79.74
2018-12-22T08:45:58.998Z,80.30
2018-12-22T08:48:27.779Z,79.95
2018-12-22T08:50:57.529Z,79.39
2018-12-22T08:53:27.224Z,80.31
2018-12-22T08:55:56.000Z,79.75
2018-12-22T08:58:25.727Z,78.53
2018-12-22T09:00:54.478Z,79.77
2018-12-22T09:03:23.138Z,78.27
2018-12-22T09:05:52.407Z,78.17
2018-12-22T09:08:21.316Z,77.85
2018-12-22T09:10:50.182Z,77.51
2018-12-22T09:13:20.984Z,78.60
2018-12-22T09:15:50.103Z,78.04
2018-12-22T09:18:19.171Z,77.79
2018-12-22T09:20:47.933Z,76.94
2018-12-22T09:23:16.847Z,76.02
2018-12-22T09:25:45.475Z,74.91
2018-12-22T09:28:15.056Z,74.87
2018-12-22T09:30:44.023Z,75.55
2018-12-22T09:33:12.967Z,75.72
2018-12-22T09:35:41.612Z,74.62
2018-12-22T09:38:10.483Z,73.42
2018-12-22T09:40:39.456Z,73.32
2018-12-22T09:43:08.474Z,72.42
2018-12-22T09:45:37.149Z,71.46
2018-12-22T09:48:07.319Z,71.87
2018-12-22T09:50:36.983Z,71.27
2018-12-22T09:53:05.671Z,71.15
2018-12-22T09:55:34.972Z,71.35
2018-12-22T09:58:04.529Z,70.60
2018-12-22T10:00:34.857Z,70.27
2018-12-22T10:03:03.837Z,68.22
2018-12-22T10:05:34.691Z,68.02
2018-12-22T10:08:03.353Z,66.20
2018-12-22T10:10:32.214Z,67.26
2018-12-22T10:13:00.999Z,67.07
2018-12-22T10:15:30.316Z,67.68
2018-12-22T10:18:00.017Z,67.70
2018-12-22T10:20:29.102Z,66.54
2018-12-22T10:22:58.032Z,67.93
2018-12-22T10:25:27.388Z,66.86
2018-12-22T10:27:56.537Z,66.93
2018-12-22T10:30:25.366Z,67.02
2018-12-22T10:32:54.500Z,66.34
2018-12-22T10:35:28.887Z,66.65
2018-12-22T10:37:57.891Z,66.77
2018-12-22T10:40:27.465Z,66.37
2018-12-22T10:42:56.398Z,66.68
2018-12-22T10:46:28.486Z,66.39
2018-12-22T10:48:57.240Z,66.23
2018-12-22T10:51:26.135Z,66.19
2018-12-22T10:53:55.036Z,66.15
2018-12-22T10:56:23.820Z,65.04
2018-12-22T10:58:53.067Z,64.60
2018-12-22T11:01:26.398Z,62.63
2018-12-22T11:03:53.604Z,62.50
2018-12-22T11:06:22.211Z,62.26
2018-12-22T11:08:51.512Z,62.62
2018-12-22T11:11:20.692Z,62.62
2018-12-22T11:13:49.521Z,62.60
2018-12-22T11:16:18.690Z,62.46
2018-12-22T11:18:48.549Z,61.74
2018-12-22T11:21:17.158Z,61.80
2018-12-22T11:23:46.430Z,63.01
2018-12-22T11:26:15.692Z,63.39
2018-12-22T11:28:46.339Z,62.80
2018-12-22T11:31:16.072Z,63.35
2018-12-22T11:33:44.737Z,63.39
2018-12-22T11:36:13.347Z,63.00
2018-12-22T11:38:42.269Z,62.75
2018-12-22T11:41:11.183Z,64.03
2018-12-22T11:43:39.883Z,63.05
2018-12-22T11:46:09.229Z,62.72
2018-12-22T11:49:53.544Z,61.89
2018-12-22T11:52:23.133Z,61.29
2018-12-22T11:54:51.869Z,61.29
2018-12-22T11:57:21.425Z,60.06
2018-12-22T11:59:51.064Z,60.18
2018-12-22T12:02:20.031Z,59.42
2018-12-22T12:04:49.021Z,59.09
2018-12-22T12:07:18.355Z,60.08
2018-12-22T12:09:47.566Z,60.76
2018-12-22T12:12:16.360Z,60.45
2018-12-22T12:14:45.776Z,60.07
2018-12-22T12:17:38.243Z,60.22
2018-12-22T12:20:08.558Z,59.02
2018-12-22T12:22:38.620Z,59.87
2018-12-22T12:25:08.094Z,59.04
2018-12-22T12:27:36.674Z,57.76
2018-12-22T12:30:18.041Z,59.18
2018-12-22T12:32:48.578Z,57.21
2018-12-22T12:35:18.302Z,57.78
2018-12-22T12:37:47.063Z,58.31
2018-12-22T12:40:18.480Z,57.67
2018-12-22T12:42:47.307Z,57.32
2018-12-22T12:45:15.938Z,57.63
2018-12-22T12:47:46.064Z,58.33
2018-12-22T12:50:19.312Z,61.39
2018-12-22T12:52:48.215Z,61.10
2018-12-22T12:55:16.892Z,62.23
2018-12-22T12:57:45.723Z,61.95
2018-12-22T13:00:16.207Z,62.28
2018-12-22T13:02:46.536Z,63.19
2018-12-22T13:05:15.274Z,63.00
2018-12-22T13:07:44.405Z,63.78
2018-12-22T13:10:14.878Z,64.35
2018-12-22T14:14:26.906Z,74.04
2018-12-22T14:17:07.044Z,73.41
2018-12-22T14:19:35.939Z,73.65
2018-12-22T14:22:05.398Z,73.53
2018-12-22T14:24:38.317Z,73.11
2018-12-22T14:27:06.954Z,73.34
2018-12-22T14:29:35.616Z,73.29
2018-12-22T14:32:04.307Z,73.62
2018-12-22T14:34:51.641Z,72.58
2018-12-22T14:37:20.251Z,73.51
2018-12-22T14:39:48.810Z,74.01
2018-12-22T14:42:17.441Z,74.29
2018-12-22T14:44:46.048Z,74.58
2018-12-22T14:47:14.593Z,74.96
2018-12-22T14:49:43.175Z,74.45
2018-12-22T14:52:11.724Z,74.50
2018-12-22T14:54:40.301Z,74.48
2018-12-22T14:57:08.913Z,74.97
2018-12-22T14:59:38.538Z,75.12
2018-12-22T15:02:07.896Z,75.74
2018-12-22T15:04:37.066Z,75.70
2018-12-22T15:07:06.834Z,76.90
2018-12-22T15:16:21.958Z,76.95
2018-12-22T15:18:50.571Z,78.07
2018-12-22T15:21:19.177Z,77.37
2018-12-22T15:23:47.831Z,78.22
2018-12-22T15:26:16.414Z,78.19
2018-12-22T15:28:47.302Z,77.92
2018-12-22T15:31:15.666Z,77.79
2018-12-22T15:33:44.276Z,77.01
2018-12-22T15:36:12.932Z,77.09
2018-12-22T15:38:41.518Z,78.19
2018-12-22T15:41:10.815Z,77.77
2018-12-22T15:43:39.473Z,78.08
2018-12-22T15:46:08.406Z,78.49
2018-12-22T15:48:36.995Z,78.63
2018-12-22T15:51:05.620Z,77.71
2018-12-22T15:53:34.370Z,78.26
2018-12-22T15:56:02.940Z,79.00
2018-12-22T15:58:31.541Z,78.13
2018-12-22T16:01:00.128Z,78.45
2018-12-22T16:03:28.723Z,77.21
2018-12-22T16:05:57.319Z,76.91
2018-12-22T16:08:25.900Z,77.91
2018-12-22T16:10:54.462Z,78.33
2018-12-22T16:13:23.048Z,78.23
2018-12-22T16:15:51.596Z,78.43
2018-12-22T16:18:20.259Z,78.02
2018-12-22T16:20:48.872Z,79.00
2018-12-22T16:23:17.507Z,79.00
2018-12-22T16:25:46.109Z,79.22
2018-12-22T16:28:21.752Z,79.14
2018-12-22T16:30:53.429Z,78.59
2018-12-22T16:33:22.109Z,79.57
2018-12-22T16:35:50.821Z,78.83
2018-12-22T16:38:19.638Z,79.04
2018-12-22T16:40:48.728Z,79.09
2018-12-22T16:43:19.953Z,79.66
2018-12-22T16:45:50.782Z,79.62
2018-12-22T16:48:21.783Z,79.26
2018-12-22T16:50:50.452Z,80.71
2018-12-22T16:53:19.053Z,80.71
2018-12-22T16:55:47.695Z,80.36
2018-12-22T16:58:31.203Z,79.63
2018-12-22T17:01:06.801Z,81.00
2018-12-22T17:03:35.664Z,81.16
2018-12-22T17:06:06.491Z,81.39
2018-12-22T17:08:35.215Z,81.01
2018-12-22T17:11:05.383Z,80.58
2018-12-22T17:13:33.983Z,79.89
2018-12-22T17:16:03.204Z,80.24
2018-12-22T17:18:31.809Z,79.47
2018-12-22T17:21:08.846Z,79.38
2018-12-22T17:23:57.223Z,80.63
2018-12-22T17:26:28.568Z,81.75
2018-12-22T17:28:57.187Z,80.65
2018-12-22T17:31:25.891Z,82.07
2018-12-22T17:33:54.490Z,82.36
2018-12-22T17:39:55.972Z,81.61
2018-12-22T17:42:24.769Z,82.38
2018-12-22T17:44:53.359Z,82.09
2018-12-22T17:47:22.000Z,82.12
2018-12-22T17:49:50.568Z,81.84
2018-12-22T17:52:19.160Z,82.37
2018-12-22T17:54:47.774Z,82.46
2018-12-22T17:57:16.668Z,82.30
2018-12-22T17:59:45.381Z,82.29
2018-12-22T18:02:14.067Z,82.14
2018-12-22T18:04:42.718Z,82.40
2018-12-22T18:07:11.370Z,82.34
2018-12-22T18:09:39.972Z,82.66
2018-12-22T18:12:08.640Z,83.40
2018-12-22T18:14:37.258Z,82.69
2018-12-22T18:17:05.896Z,83.14
2018-12-22T18:19:34.598Z,83.17
2018-12-22T18:22:03.280Z,83.18
2018-12-22T18:24:31.953Z,83.22
2018-12-22T18:27:00.601Z,82.83
2018-12-22T18:29:29.170Z,83.59
2018-12-22T18:31:57.775Z,83.91
2018-12-22T18:34:26.427Z,86.06
2018-12-22T18:36:54.994Z,85.28
2018-12-22T18:39:23.623Z,84.70
2018-12-22T18:41:52.224Z,84.35
2018-12-22T18:44:20.834Z,85.26
2018-12-22T18:46:49.502Z,84.92
2018-12-22T18:49:18.121Z,84.02
2018-12-22T18:51:46.790Z,83.37
2018-12-22T18:54:15.627Z,83.30
2018-12-22T18:56:44.273Z,84.01
2018-12-22T18:59:13.123Z,84.11
2018-12-22T19:01:41.735Z,84.17
2018-12-22T19:04:10.302Z,83.22
2018-12-22T19:06:39.234Z,83.15
2018-12-22T19:09:11.711Z,83.28
2018-12-22T19:11:40.336Z,82.59
2018-12-22T19:14:08.922Z,82.57
2018-12-22T19:16:37.545Z,82.38
2018-12-22T19:19:36.736Z,83.18
2018-12-22T19:22:05.406Z,83.29
2018-12-22T19:24:34.077Z,83.69
2018-12-22T19:27:02.728Z,83.10
2018-12-22T19:29:31.372Z,83.10
2018-12-22T19:31:59.914Z,83.25
2018-12-22T19:34:28.456Z,84.07
2018-12-22T19:36:57.065Z,84.11
2018-12-22T19:39:25.664Z,82.31
2018-12-22T19:41:54.288Z,82.72
2018-12-22T19:44:22.902Z,82.17
2018-12-22T19:46:51.690Z,82.77
2018-12-22T19:49:20.244Z,81.59
2018-12-22T19:51:48.862Z,82.50
2018-12-22T19:54:17.568Z,81.15
2018-12-22T19:56:46.163Z,81.91
2018-12-22T19:59:14.717Z,81.65
2018-12-22T20:01:43.304Z,82.51
2018-12-22T20:04:11.964Z,81.36
2018-12-22T20:06:40.805Z,83.55
2018-12-22T20:09:09.385Z,86.25
2018-12-22T20:11:38.148Z,86.87
2018-12-22T20:14:06.831Z,87.01
2018-12-22T20:16:35.471Z,86.54
2018-12-22T20:19:04.064Z,86.43
2018-12-22T20:21:32.636Z,84.91
2018-12-22T20:24:01.277Z,85.74
2018-12-22T20:26:30.239Z,86.83
2018-12-22T20:28:58.850Z,88.00
2018-12-22T20:31:28.176Z,87.54
2018-12-22T20:33:56.708Z,85.59
2018-12-22T20:36:25.389Z,84.40
2018-12-22T20:38:53.925Z,83.84
2018-12-22T20:41:22.525Z,83.31
2018-12-22T20:43:51.783Z,83.10
2018-12-22T20:46:20.429Z,82.60
2018-12-22T20:48:49.365Z,81.76
2018-12-22T20:51:17.985Z,81.75
2018-12-22T20:53:46.620Z,82.27
2018-12-22T20:56:15.241Z,81.95
2018-12-22T20:58:43.846Z,82.15
2018-12-22T21:01:12.399Z,81.85
2018-12-22T21:03:41.693Z,81.96
2018-12-22T21:06:18.571Z,82.96
2018-12-22T21:08:47.191Z,83.23
2018-12-22T21:11:15.823Z,82.23
2018-12-22T21:13:44.524Z,81.98
2018-12-22T21:16:13.135Z,81.47
2018-12-22T21:18:41.736Z,81.96
2018-12-22T21:21:10.324Z,82.91
2018-12-22T21:23:38.928Z,82.77
2018-12-22T21:26:07.567Z,82.95
2018-12-22T21:28:38.069Z,82.05
2018-12-22T21:31:06.783Z,83.44
2018-12-22T21:33:35.331Z,84.90
2018-12-22T21:36:03.973Z,83.37
2018-12-22T21:38:32.581Z,83.88
2018-12-22T21:41:01.224Z,84.30
2018-12-22T21:43:29.787Z,85.18
2018-12-22T21:45:58.353Z,84.95
2018-12-22T21:48:26.944Z,84.32
2018-12-22T21:50:55.520Z,83.71
2018-12-22T21:53:24.156Z,82.94
2018-12-22T21:55:52.671Z,82.02
2018-12-22T21:58:21.227Z,83.03
2018-12-22T22:00:49.814Z,82.54
2018-12-22T22:03:18.429Z,82.39
2018-12-22T22:05:47.093Z,83.24
2018-12-22T22:08:15.867Z,83.46
2018-12-22T22:10:44.518Z,83.18
2018-12-22T22:13:13.123Z,82.50
2018-12-22T22:15:41.777Z,83.01
2018-12-22T22:18:10.379Z,82.30
2018-12-22T22:20:38.981Z,82.88
2018-12-22T22:23:07.611Z,82.30
2018-12-22T22:25:36.555Z,84.20
2018-12-22T22:28:05.087Z,83.53
2018-12-22T22:30:33.678Z,83.62
2018-12-22T22:33:02.256Z,83.53
2018-12-22T22:35:30.837Z,82.67
2018-12-22T22:37:59.467Z,83.43
2018-12-22T22:40:28.105Z,82.60
2018-12-22T22:42:56.759Z,82.05
2018-12-22T22:45:25.375Z,82.13
2018-12-22T22:47:53.994Z,81.99
2018-12-22T22:50:22.511Z,81.65
2018-12-22T22:52:51.075Z,81.86
2018-12-22T22:55:19.611Z,81.89
2018-12-22T22:57:48.351Z,81.59
2018-12-22T23:00:27.275Z,82.11
2018-12-22T23:02:56.445Z,82.37
2018-12-22T23:05:24.997Z,82.67
2018-12-22T23:07:53.594Z,82.55
2018-12-22T23:10:22.390Z,82.90
2018-12-22T23:12:51.218Z,81.79
2018-12-22T23:15:19.819Z,81.42
2018-12-22T23:17:48.415Z,82.17
2018-12-22T23:20:16.966Z,81.80
2018-12-22T23:22:45.768Z,82.54
2018-12-22T23:25:14.398Z,83.54
2018-12-22T23:27:42.959Z,83.43
2018-12-22T23:30:11.604Z,84.15
2018-12-22T23:32:40.183Z,85.37
2018-12-22T23:35:08.740Z,84.09
2018-12-22T23:37:37.335Z,84.17
2018-12-22T23:40:06.059Z,84.27
2018-12-22T23:42:34.612Z,83.83
2018-12-22T23:45:03.247Z,83.48
2018-12-22T23:47:31.816Z,83.45
2018-12-22T23:50:00.397Z,83.47
2018-12-22T23:52:29.011Z,83.01
2018-12-22T23:54:57.592Z,83.06
2018-12-22T23:57:26.179Z,82.84
2018-12-22T23:59:54.749Z,84.65
